Flight Track Log - Related Links

Times and Time Zones

All times are in EDT time to prevent confusion due to time zone crossing. See the SKW5631 flight status page for this flight to view local times or setup timezone preferences in your user account.

Time Position Orientation Groundspeed Altitude Reporting Facility
EDT Latitude Longitude Course Direction KTS MPH feet Rate Location/Type
Thu 10:33:59 PM 37.6333 -122.3667 133° Southeast 159 183 600  Level Northern Cal TRACON
Thu 10:34:59 PM 37.6833 -122.3667 360° North 191 220 2,100 1,947 Climbing Northern Cal TRACON
Thu 10:35:53 PM 37.7167 -122.4000 322° Northwest 215 247 4,300 2,158 Climbing Northern Cal TRACON
Thu 10:36:53 PM 37.7000 -122.4500 247° West 245 282 6,200 1,747 Climbing Northern Cal TRACON
Thu 10:38:00 PM 37.2726 -122.1172 130° Southeast  Level FlightAware Approximate
Thu 10:38:31 PM 37.5828 -122.4364 175° South 278 320 8,900  Level Oakland Center
Thu 10:39:00 PM 37.1822 -121.9985 133° Southeast  Level FlightAware Approximate
Thu 10:39:32 PM 37.5025 -122.4158 169° South 297 342 10,500  Level Oakland Center
Thu 10:40:33 PM 37.4297 -122.3481 144° Southeast 325 374 11,900 1,561 Climbing Oakland Center
Thu 10:41:35 PM 37.3444 -122.2586 140° Southeast 333 383 13,700 1,610 Climbing Oakland Center
Thu 10:42:36 PM 37.2736 -122.1803 139° Southeast 337 388 15,200 1,377 Climbing Oakland Center
Thu 10:43:37 PM 37.2014 -122.1006 139° Southeast 343 395 16,500 1,180 Climbing Oakland Center
Thu 10:44:38 PM 37.1258 -122.0186 139° Southeast 357 411 17,600 1,082 Climbing Oakland Center
Thu 10:45:39 PM 37.0503 -121.9347 138° Southeast 365 420 18,700 683 Climbing Oakland Center
Thu 10:46:41 PM 36.9708 -121.8486 139° Southeast 378 435 19,000 634 Climbing Oakland Center
Thu 10:47:42 PM 36.8856 -121.7611 141° Southeast 395 455 20,000 721 Climbing Oakland Center
Thu 10:49:44 PM 36.7375 -121.5358 129° Southeast 407 468 21,200 652 Climbing Oakland Center
Thu 10:50:46 PM 36.6739 -121.4225 125° Southeast 401 461 22,000 878 Climbing Oakland Center
Thu 10:51:47 PM 36.5894 -121.3361 141° Southeast 393 452 23,000 836 Climbing Oakland Center
Thu 10:52:48 PM 36.5025 -121.2517 142° Southeast 394 453 23,700 689 Climbing Oakland Center
Thu 10:53:49 PM 36.4167 -121.1664 141° Southeast 396 456 24,400 683 Climbing Oakland Center
Thu 10:54:51 PM 36.3133 -121.0617 141° Southeast 398 458 25,100 585 Climbing Oakland Center
Thu 10:55:52 PM 36.2261 -120.9747 141° Southeast 402 463 25,600 492 Climbing Oakland Center
Thu 10:56:53 PM 36.1375 -120.8867 141° Southeast 407 468 26,100 492 Climbing Oakland Center
Thu 10:57:54 PM 36.0492 -120.7997 141° Southeast 407 468 26,600 439 Climbing Oakland Center
Thu 10:58:56 PM 35.9606 -120.7100 141° Southeast 410 472 27,000 195 Climbing Oakland Center
Thu 10:59:57 PM 35.8678 -120.6208 142° Southeast 419 482 27,000  Level Oakland Center
Thu 11:00:58 PM 35.7750 -120.5289 141° Southeast 427 491 27,000  Level Oakland Center
Thu 11:01:59 PM 35.6800 -120.4356 141° Southeast 434 499 27,000  Level Oakland Center
Thu 11:03:01 PM 35.5844 -120.3422 142° Southeast 435 501 27,000 -46 Level Oakland Center
Thu 11:04:09 PM 35.4656 -120.2264 142° Southeast 435 501 26,900  Descending Los Angeles Center
Thu 11:05:11 PM 35.3689 -120.1344 142° Southeast 438 504 27,000 48 Climbing Los Angeles Center
Thu 11:06:13 PM 35.2744 -120.0400 141° Southeast 437 503 27,000  Level Los Angeles Center
Thu 11:07:15 PM 35.1789 -119.9478 142° Southeast 436 502 27,000 -48 Level Los Angeles Center
Thu 11:08:17 PM 35.0842 -119.8544 141° Southeast 436 502 26,900  Descending Los Angeles Center
Thu 11:09:18 PM 35.0019 -119.7431 132° Southeast 440 506 27,000 -927 Climbing Los Angeles Center
Thu 11:10:20 PM 34.9208 -119.6328 132° Southeast 438 504 25,000 -2,758 Descending Los Angeles Center
Thu 11:11:22 PM 34.8239 -119.5006 132° Southeast 436 502 21,300 -2,978 Descending Los Angeles Center
Thu 11:12:35 PM 34.7417 -119.3931 133° Southeast 433 498 18,300 -2,956 Descending Los Angeles Center
Thu 11:13:38 PM 34.6517 -119.2722 132° Southeast 400 460 14,600 -3,145 Descending Los Angeles Center
Thu 11:14:39 PM 34.5844 -119.1867 134° Southeast 379 436 11,800 -1,756 Descending Los Angeles Center
Thu 11:15:41 PM 34.5083 -119.0814 131° Southeast 335 386 11,000 -339 Descending Los Angeles Center
Thu 11:16:43 PM 34.4517 -119.0067 133° Southeast 299 344 11,100  Climbing Los Angeles Center
Thu 11:17:57 PM 34.3958 -118.9319 132° Southeast 297 342 11,000 -1,015 Descending Los Angeles Center
Thu 11:18:59 PM 34.3194 -118.8564 141° Southeast 294 338 8,800 -1,935 Descending Los Angeles Center
Thu 11:20:01 PM 34.2764 -118.7797 124° Southeast 278 320 7,000 -1,707 Descending Los Angeles Center
Thu 11:21:02 PM 34.2392 -118.7003 120° Southeast 271 312 5,300 -1,672 Descending Los Angeles Center

Login

Don't have an account? Register now (free) for customized features, flight alerts, and more!